sensor_id;sensor_type;location;lat;lon;timestamp;P1;durP1;ratioP1;P2;durP2;ratioP2
19089;SDS011;9677;50.656;13.064;2023-04-23T00:00:21;11.00;;;9.90;;
19089;SDS011;9677;50.656;13.064;2023-04-23T00:02:53;10.77;;;9.67;;
19089;SDS011;9677;50.656;13.064;2023-04-23T00:05:27;11.67;;;10.53;;
19089;SDS011;9677;50.656;13.064;2023-04-23T00:07:59;11.30;;;10.17;;
19089;SDS011;9677;50.656;13.064;2023-04-23T00:10:30;12.20;;;10.40;;
19089;SDS011;9677;50.656;13.064;2023-04-23T00:13:00;11.10;;;10.00;;
19089;SDS011;9677;50.656;13.064;2023-04-23T00:15:30;12.07;;;9.90;;
19089;SDS011;9677;50.656;13.064;2023-04-23T00:18:00;11.40;;;10.20;;
19089;SDS011;9677;50.656;13.064;2023-04-23T00:20:30;12.47;;;9.87;;
19089;SDS011;9677;50.656;13.064;2023-04-23T00:23:00;11.27;;;10.17;;
19089;SDS011;9677;50.656;13.064;2023-04-23T00:25:28;11.10;;;10.00;;
19089;SDS011;9677;50.656;13.064;2023-04-23T00:27:58;11.37;;;10.27;;
19089;SDS011;9677;50.656;13.064;2023-04-23T00:30:28;10.93;;;9.83;;
19089;SDS011;9677;50.656;13.064;2023-04-23T00:32:57;11.00;;;9.83;;
19089;SDS011;9677;50.656;13.064;2023-04-23T00:35:27;11.20;;;9.93;;
19089;SDS011;9677;50.656;13.064;2023-04-23T00:37:58;11.40;;;10.30;;
19089;SDS011;9677;50.656;13.064;2023-04-23T00:40:27;11.10;;;10.00;;
19089;SDS011;9677;50.656;13.064;2023-04-23T00:42:56;11.17;;;9.97;;
19089;SDS011;9677;50.656;13.064;2023-04-23T00:45:29;11.10;;;10.00;;
19089;SDS011;9677;50.656;13.064;2023-04-23T00:47:59;11.10;;;10.00;;
19089;SDS011;9677;50.656;13.064;2023-04-23T00:50:30;10.70;;;9.70;;
19089;SDS011;9677;50.656;13.064;2023-04-23T00:53:00;11.30;;;10.17;;
19089;SDS011;9677;50.656;13.064;2023-04-23T00:55:30;10.80;;;9.80;;
19089;SDS011;9677;50.656;13.064;2023-04-23T00:58:00;11.23;;;10.10;;
19089;SDS011;9677;50.656;13.064;2023-04-23T01:00:33;10.87;;;9.77;;
19089;SDS011;9677;50.656;13.064;2023-04-23T01:03:32;10.90;;;9.90;;
19089;SDS011;9677;50.656;13.064;2023-04-23T01:13:01;10.60;;;9.60;;
19089;SDS011;9677;50.656;13.064;2023-04-23T01:15:31;10.87;;;9.77;;
19089;SDS011;9677;50.656;13.064;2023-04-23T01:18:00;11.53;;;9.90;;
19089;SDS011;9677;50.656;13.064;2023-04-23T01:20:30;10.50;;;9.50;;
19089;SDS011;9677;50.656;13.064;2023-04-23T01:23:02;12.10;;;9.77;;
19089;SDS011;9677;50.656;13.064;2023-04-23T01:25:33;10.60;;;9.50;;
19089;SDS011;9677;50.656;13.064;2023-04-23T01:28:02;11.00;;;9.90;;
19089;SDS011;9677;50.656;13.064;2023-04-23T01:30:34;11.10;;;10.00;;
19089;SDS011;9677;50.656;13.064;2023-04-23T01:33:06;10.77;;;9.73;;
19089;SDS011;9677;50.656;13.064;2023-04-23T01:35:36;11.00;;;9.90;;
19089;SDS011;9677;50.656;13.064;2023-04-23T01:38:10;11.03;;;9.93;;
19089;SDS011;9677;50.656;13.064;2023-04-23T01:40:41;10.87;;;9.70;;
19089;SDS011;9677;50.656;13.064;2023-04-23T01:43:12;11.20;;;10.20;;
19089;SDS011;9677;50.656;13.064;2023-04-23T01:45:43;10.63;;;9.63;;
19089;SDS011;9677;50.656;13.064;2023-04-23T01:48:13;11.10;;;10.10;;
19089;SDS011;9677;50.656;13.064;2023-04-23T01:50:43;10.90;;;9.80;;
19089;SDS011;9677;50.656;13.064;2023-04-23T01:53:18;11.30;;;10.20;;
19089;SDS011;9677;50.656;13.064;2023-04-23T01:55:47;10.90;;;9.87;;
19089;SDS011;9677;50.656;13.064;2023-04-23T01:58:18;11.57;;;10.37;;
19089;SDS011;9677;50.656;13.064;2023-04-23T02:10:59;10.57;;;9.57;;
19089;SDS011;9677;50.656;13.064;2023-04-23T02:13:28;10.97;;;9.87;;
19089;SDS011;9677;50.656;13.064;2023-04-23T02:15:57;10.73;;;9.63;;
19089;SDS011;9677;50.656;13.064;2023-04-23T02:18:26;10.50;;;9.50;;
19089;SDS011;9677;50.656;13.064;2023-04-23T02:20:55;11.30;;;10.10;;
19089;SDS011;9677;50.656;13.064;2023-04-23T02:23:25;11.60;;;10.40;;
19089;SDS011;9677;50.656;13.064;2023-04-23T02:25:54;11.00;;;10.00;;
19089;SDS011;9677;50.656;13.064;2023-04-23T02:28:23;11.53;;;10.27;;
19089;SDS011;9677;50.656;13.064;2023-04-23T02:30:52;11.20;;;10.10;;
19089;SDS011;9677;50.656;13.064;2023-04-23T02:33:21;11.30;;;10.20;;
19089;SDS011;9677;50.656;13.064;2023-04-23T02:35:52;10.70;;;9.70;;
19089;SDS011;9677;50.656;13.064;2023-04-23T02:38:24;11.30;;;10.20;;
19089;SDS011;9677;50.656;13.064;2023-04-23T02:44:22;10.50;;;9.40;;
19089;SDS011;9677;50.656;13.064;2023-04-23T03:37:03;10.40;;;9.50;;
19089;SDS011;9677;50.656;13.064;2023-04-23T04:57:17;10.27;;;9.37;;
19089;SDS011;9677;50.656;13.064;2023-04-23T05:21:13;10.70;;;9.60;;
19089;SDS011;9677;50.656;13.064;2023-04-23T05:27:00;10.80;;;9.80;;
19089;SDS011;9677;50.656;13.064;2023-04-23T05:32:49;10.90;;;9.90;;
19089;SDS011;9677;50.656;13.064;2023-04-23T05:35:19;10.23;;;9.30;;
19089;SDS011;9677;50.656;13.064;2023-04-23T05:37:50;10.20;;;9.30;;
19089;SDS011;9677;50.656;13.064;2023-04-23T05:40:19;10.33;;;9.33;;
19089;SDS011;9677;50.656;13.064;2023-04-23T05:42:48;10.07;;;9.17;;
19089;SDS011;9677;50.656;13.064;2023-04-23T05:45:18;10.33;;;9.40;;
19089;SDS011;9677;50.656;13.064;2023-04-23T06:04:24;9.70;;;8.90;;
19089;SDS011;9677;50.656;13.064;2023-04-23T06:06:53;10.20;;;9.30;;
19089;SDS011;9677;50.656;13.064;2023-04-23T06:09:21;10.47;;;9.50;;
19089;SDS011;9677;50.656;13.064;2023-04-23T06:11:50;10.83;;;9.73;;
19089;SDS011;9677;50.656;13.064;2023-04-23T06:14:19;10.20;;;9.30;;
19089;SDS011;9677;50.656;13.064;2023-04-23T06:16:48;10.20;;;9.20;;
19089;SDS011;9677;50.656;13.064;2023-04-23T06:19:16;9.97;;;9.03;;
19089;SDS011;9677;50.656;13.064;2023-04-23T06:21:46;10.00;;;9.10;;
19089;SDS011;9677;50.656;13.064;2023-04-23T06:24:14;10.30;;;9.30;;
19089;SDS011;9677;50.656;13.064;2023-04-23T06:26:43;9.93;;;9.03;;
19089;SDS011;9677;50.656;13.064;2023-04-23T06:29:15;9.70;;;8.90;;
19089;SDS011;9677;50.656;13.064;2023-04-23T06:31:53;9.70;;;8.80;;
19089;SDS011;9677;50.656;13.064;2023-04-23T06:34:22;9.80;;;8.90;;
19089;SDS011;9677;50.656;13.064;2023-04-23T06:36:51;9.80;;;8.90;;
19089;SDS011;9677;50.656;13.064;2023-04-23T06:39:20;9.93;;;9.03;;
19089;SDS011;9677;50.656;13.064;2023-04-23T06:41:49;9.90;;;9.00;;
19089;SDS011;9677;50.656;13.064;2023-04-23T06:44:33;9.83;;;8.83;;
19089;SDS011;9677;50.656;13.064;2023-04-23T06:47:03;9.73;;;8.87;;
19089;SDS011;9677;50.656;13.064;2023-04-23T06:49:31;9.80;;;8.90;;
19089;SDS011;9677;50.656;13.064;2023-04-23T06:52:01;9.93;;;9.03;;
19089;SDS011;9677;50.656;13.064;2023-04-23T06:54:30;9.73;;;8.83;;
19089;SDS011;9677;50.656;13.064;2023-04-23T06:56:58;9.40;;;8.60;;
19089;SDS011;9677;50.656;13.064;2023-04-23T06:59:26;9.90;;;9.00;;
19089;SDS011;9677;50.656;13.064;2023-04-23T07:01:56;9.77;;;8.87;;
19089;SDS011;9677;50.656;13.064;2023-04-23T07:04:25;10.10;;;9.10;;
19089;SDS011;9677;50.656;13.064;2023-04-23T07:06:53;10.00;;;9.00;;
19089;SDS011;9677;50.656;13.064;2023-04-23T07:09:23;10.00;;;9.10;;
19089;SDS011;9677;50.656;13.064;2023-04-23T07:11:51;9.97;;;9.07;;
19089;SDS011;9677;50.656;13.064;2023-04-23T07:14:20;9.60;;;8.70;;
19089;SDS011;9677;50.656;13.064;2023-04-23T07:16:49;9.83;;;8.93;;
19089;SDS011;9677;50.656;13.064;2023-04-23T07:19:17;9.87;;;8.93;;
19089;SDS011;9677;50.656;13.064;2023-04-23T07:21:45;11.67;;;8.90;;
19089;SDS011;9677;50.656;13.064;2023-04-23T07:24:14;10.00;;;9.10;;
19089;SDS011;9677;50.656;13.064;2023-04-23T07:26:44;10.47;;;9.47;;
19089;SDS011;9677;50.656;13.064;2023-04-23T07:29:13;10.10;;;9.10;;
19089;SDS011;9677;50.656;13.064;2023-04-23T07:31:41;10.00;;;9.10;;
19089;SDS011;9677;50.656;13.064;2023-04-23T07:34:10;10.07;;;9.17;;
19089;SDS011;9677;50.656;13.064;2023-04-23T07:36:39;10.10;;;9.10;;
19089;SDS011;9677;50.656;13.064;2023-04-23T07:39:07;9.80;;;8.90;;
19089;SDS011;9677;50.656;13.064;2023-04-23T07:41:36;9.30;;;8.50;;
19089;SDS011;9677;50.656;13.064;2023-04-23T07:44:06;9.63;;;8.70;;
19089;SDS011;9677;50.656;13.064;2023-04-23T07:46:34;9.80;;;8.90;;
19089;SDS011;9677;50.656;13.064;2023-04-23T07:49:03;9.57;;;8.73;;
19089;SDS011;9677;50.656;13.064;2023-04-23T07:51:32;9.97;;;9.07;;
19089;SDS011;9677;50.656;13.064;2023-04-23T07:54:02;9.40;;;8.50;;
19089;SDS011;9677;50.656;13.064;2023-04-23T07:56:31;9.50;;;8.60;;
19089;SDS011;9677;50.656;13.064;2023-04-23T07:58:59;9.80;;;8.80;;
19089;SDS011;9677;50.656;13.064;2023-04-23T08:01:29;9.90;;;9.00;;
19089;SDS011;9677;50.656;13.064;2023-04-23T08:03:59;9.40;;;8.60;;
19089;SDS011;9677;50.656;13.064;2023-04-23T08:06:29;10.17;;;9.17;;
19089;SDS011;9677;50.656;13.064;2023-04-23T08:09:00;9.40;;;8.50;;
19089;SDS011;9677;50.656;13.064;2023-04-23T08:11:34;9.20;;;8.40;;
19089;SDS011;9677;50.656;13.064;2023-04-23T08:14:02;9.40;;;8.53;;
19089;SDS011;9677;50.656;13.064;2023-04-23T08:16:33;9.33;;;8.40;;
19089;SDS011;9677;50.656;13.064;2023-04-23T08:19:04;9.10;;;8.30;;
19089;SDS011;9677;50.656;13.064;2023-04-23T08:21:34;9.20;;;8.40;;
19089;SDS011;9677;50.656;13.064;2023-04-23T08:24:04;9.50;;;8.70;;
19089;SDS011;9677;50.656;13.064;2023-04-23T08:26:33;9.10;;;8.30;;
19089;SDS011;9677;50.656;13.064;2023-04-23T08:29:02;9.63;;;8.63;;
19089;SDS011;9677;50.656;13.064;2023-04-23T08:31:30;9.60;;;8.70;;
19089;SDS011;9677;50.656;13.064;2023-04-23T08:34:01;9.27;;;8.47;;
19089;SDS011;9677;50.656;13.064;2023-04-23T08:36:30;9.10;;;8.30;;
19089;SDS011;9677;50.656;13.064;2023-04-23T08:38:58;9.20;;;8.40;;
19089;SDS011;9677;50.656;13.064;2023-04-23T08:41:32;9.20;;;8.40;;
19089;SDS011;9677;50.656;13.064;2023-04-23T08:44:07;9.20;;;8.40;;
19089;SDS011;9677;50.656;13.064;2023-04-23T08:46:44;9.23;;;8.43;;
19089;SDS011;9677;50.656;13.064;2023-04-23T08:49:13;9.00;;;8.30;;
19089;SDS011;9677;50.656;13.064;2023-04-23T08:51:45;8.70;;;8.00;;
19089;SDS011;9677;50.656;13.064;2023-04-23T08:54:18;8.90;;;8.17;;
19089;SDS011;9677;50.656;13.064;2023-04-23T08:56:50;9.10;;;8.30;;
19089;SDS011;9677;50.656;13.064;2023-04-23T08:59:19;9.50;;;8.70;;
19089;SDS011;9677;50.656;13.064;2023-04-23T09:01:49;9.20;;;8.40;;
19089;SDS011;9677;50.656;13.064;2023-04-23T09:04:19;9.40;;;8.60;;
19089;SDS011;9677;50.656;13.064;2023-04-23T09:06:47;9.23;;;8.10;;
19089;SDS011;9677;50.656;13.064;2023-04-23T09:09:17;8.90;;;8.20;;
19089;SDS011;9677;50.656;13.064;2023-04-23T09:11:49;9.07;;;8.30;;
19089;SDS011;9677;50.656;13.064;2023-04-23T09:14:21;8.97;;;8.23;;
19089;SDS011;9677;50.656;13.064;2023-04-23T09:16:52;9.00;;;8.20;;
19089;SDS011;9677;50.656;13.064;2023-04-23T09:19:21;8.80;;;8.10;;
19089;SDS011;9677;50.656;13.064;2023-04-23T09:21:54;8.93;;;8.20;;
19089;SDS011;9677;50.656;13.064;2023-04-23T09:24:22;8.90;;;8.20;;
19089;SDS011;9677;50.656;13.064;2023-04-23T09:26:51;8.73;;;8.03;;
19089;SDS011;9677;50.656;13.064;2023-04-23T09:29:21;8.67;;;7.90;;
19089;SDS011;9677;50.656;13.064;2023-04-23T09:31:51;9.07;;;8.27;;
19089;SDS011;9677;50.656;13.064;2023-04-23T09:34:33;9.13;;;8.33;;
19089;SDS011;9677;50.656;13.064;2023-04-23T09:37:04;9.20;;;8.40;;
19089;SDS011;9677;50.656;13.064;2023-04-23T09:39:36;9.30;;;8.50;;
19089;SDS011;9677;50.656;13.064;2023-04-23T09:42:06;8.83;;;8.13;;
19089;SDS011;9677;50.656;13.064;2023-04-23T09:44:36;8.90;;;8.20;;
19089;SDS011;9677;50.656;13.064;2023-04-23T09:47:06;9.20;;;8.40;;
19089;SDS011;9677;50.656;13.064;2023-04-23T09:49:44;9.17;;;8.37;;
19089;SDS011;9677;50.656;13.064;2023-04-23T09:52:13;9.00;;;8.20;;
19089;SDS011;9677;50.656;13.064;2023-04-23T09:54:42;8.80;;;8.10;;
19089;SDS011;9677;50.656;13.064;2023-04-23T09:57:12;9.10;;;8.20;;
19089;SDS011;9677;50.656;13.064;2023-04-23T09:59:40;8.80;;;8.10;;
19089;SDS011;9677;50.656;13.064;2023-04-23T10:02:16;8.90;;;8.20;;
19089;SDS011;9677;50.656;13.064;2023-04-23T10:04:49;8.90;;;8.20;;
19089;SDS011;9677;50.656;13.064;2023-04-23T10:07:32;8.93;;;8.20;;
19089;SDS011;9677;50.656;13.064;2023-04-23T10:10:01;8.60;;;7.90;;
19089;SDS011;9677;50.656;13.064;2023-04-23T10:12:30;8.70;;;8.00;;
19089;SDS011;9677;50.656;13.064;2023-04-23T10:15:19;8.70;;;8.00;;
19089;SDS011;9677;50.656;13.064;2023-04-23T10:17:51;8.80;;;8.10;;
19089;SDS011;9677;50.656;13.064;2023-04-23T10:20:20;8.67;;;7.97;;
19089;SDS011;9677;50.656;13.064;2023-04-23T10:22:50;9.10;;;8.30;;
19089;SDS011;9677;50.656;13.064;2023-04-23T10:25:22;8.70;;;8.00;;
19089;SDS011;9677;50.656;13.064;2023-04-23T10:27:52;8.70;;;8.00;;
19089;SDS011;9677;50.656;13.064;2023-04-23T10:30:23;9.17;;;8.37;;
19089;SDS011;9677;50.656;13.064;2023-04-23T10:32:53;9.17;;;8.37;;
19089;SDS011;9677;50.656;13.064;2023-04-23T10:35:23;9.10;;;8.30;;
19089;SDS011;9677;50.656;13.064;2023-04-23T10:37:52;8.90;;;8.17;;
19089;SDS011;9677;50.656;13.064;2023-04-23T10:40:23;9.20;;;8.40;;
19089;SDS011;9677;50.656;13.064;2023-04-23T10:42:57;9.10;;;8.30;;
19089;SDS011;9677;50.656;13.064;2023-04-23T10:45:29;10.07;;;9.10;;
19089;SDS011;9677;50.656;13.064;2023-04-23T10:47:59;10.30;;;9.30;;
19089;SDS011;9677;50.656;13.064;2023-04-23T10:50:33;9.43;;;8.63;;
19089;SDS011;9677;50.656;13.064;2023-04-23T10:53:20;9.37;;;8.47;;
19089;SDS011;9677;50.656;13.064;2023-04-23T10:55:48;8.97;;;8.20;;
19089;SDS011;9677;50.656;13.064;2023-04-23T10:58:17;9.30;;;8.50;;
19089;SDS011;9677;50.656;13.064;2023-04-23T11:00:47;8.77;;;8.07;;
19089;SDS011;9677;50.656;13.064;2023-04-23T11:03:36;8.80;;;8.10;;
19089;SDS011;9677;50.656;13.064;2023-04-23T11:06:12;9.03;;;8.23;;
19089;SDS011;9677;50.656;13.064;2023-04-23T11:08:49;8.60;;;7.90;;
19089;SDS011;9677;50.656;13.064;2023-04-23T11:11:23;8.90;;;8.20;;
19089;SDS011;9677;50.656;13.064;2023-04-23T11:14:10;8.70;;;8.00;;
19089;SDS011;9677;50.656;13.064;2023-04-23T11:16:41;8.70;;;8.00;;
19089;SDS011;9677;50.656;13.064;2023-04-23T11:19:11;8.70;;;8.00;;
19089;SDS011;9677;50.656;13.064;2023-04-23T11:21:59;8.93;;;8.13;;
19089;SDS011;9677;50.656;13.064;2023-04-23T11:24:30;8.90;;;8.20;;
19089;SDS011;9677;50.656;13.064;2023-04-23T11:27:03;8.83;;;8.13;;
19089;SDS011;9677;50.656;13.064;2023-04-23T11:29:33;8.80;;;8.10;;
19089;SDS011;9677;50.656;13.064;2023-04-23T11:32:03;8.70;;;8.00;;
19089;SDS011;9677;50.656;13.064;2023-04-23T11:34:38;8.53;;;7.83;;
19089;SDS011;9677;50.656;13.064;2023-04-23T11:37:12;8.70;;;8.00;;
19089;SDS011;9677;50.656;13.064;2023-04-23T11:39:42;8.60;;;7.90;;
19089;SDS011;9677;50.656;13.064;2023-04-23T11:42:13;8.90;;;8.20;;
19089;SDS011;9677;50.656;13.064;2023-04-23T11:44:46;9.00;;;8.20;;
19089;SDS011;9677;50.656;13.064;2023-04-23T11:47:22;8.63;;;7.90;;
19089;SDS011;9677;50.656;13.064;2023-04-23T11:49:57;9.30;;;8.10;;
19089;SDS011;9677;50.656;13.064;2023-04-23T11:52:32;9.03;;;8.23;;
19089;SDS011;9677;50.656;13.064;2023-04-23T11:55:05;8.50;;;7.80;;
19089;SDS011;9677;50.656;13.064;2023-04-23T11:57:35;8.63;;;7.93;;
19089;SDS011;9677;50.656;13.064;2023-04-23T12:00:09;9.00;;;8.20;;
19089;SDS011;9677;50.656;13.064;2023-04-23T12:02:49;8.53;;;7.83;;
19089;SDS011;9677;50.656;13.064;2023-04-23T12:05:21;8.60;;;7.90;;
19089;SDS011;9677;50.656;13.064;2023-04-23T12:08:01;8.70;;;8.00;;
19089;SDS011;9677;50.656;13.064;2023-04-23T12:10:40;8.80;;;8.03;;
19089;SDS011;9677;50.656;13.064;2023-04-23T12:13:13;9.00;;;8.20;;
19089;SDS011;9677;50.656;13.064;2023-04-23T12:15:44;8.90;;;8.10;;
19089;SDS011;9677;50.656;13.064;2023-04-23T12:18:14;9.03;;;8.23;;
19089;SDS011;9677;50.656;13.064;2023-04-23T12:20:44;8.60;;;7.90;;
19089;SDS011;9677;50.656;13.064;2023-04-23T12:23:13;8.70;;;8.00;;
19089;SDS011;9677;50.656;13.064;2023-04-23T12:25:41;8.80;;;8.10;;
19089;SDS011;9677;50.656;13.064;2023-04-23T12:28:10;8.60;;;7.90;;
19089;SDS011;9677;50.656;13.064;2023-04-23T12:30:42;8.90;;;8.10;;
19089;SDS011;9677;50.656;13.064;2023-04-23T12:33:11;8.80;;;8.10;;
19089;SDS011;9677;50.656;13.064;2023-04-23T12:35:40;8.70;;;8.00;;
19089;SDS011;9677;50.656;13.064;2023-04-23T12:38:21;9.00;;;8.20;;
19089;SDS011;9677;50.656;13.064;2023-04-23T12:40:50;8.70;;;8.00;;
19089;SDS011;9677;50.656;13.064;2023-04-23T12:43:19;8.60;;;7.90;;
19089;SDS011;9677;50.656;13.064;2023-04-23T12:45:48;8.60;;;7.90;;
19089;SDS011;9677;50.656;13.064;2023-04-23T12:48:17;8.60;;;7.90;;
19089;SDS011;9677;50.656;13.064;2023-04-23T12:50:46;8.40;;;7.70;;
19089;SDS011;9677;50.656;13.064;2023-04-23T12:53:15;9.10;;;8.20;;
19089;SDS011;9677;50.656;13.064;2023-04-23T12:55:46;8.90;;;8.10;;
19089;SDS011;9677;50.656;13.064;2023-04-23T12:58:15;9.07;;;8.27;;
19089;SDS011;9677;50.656;13.064;2023-04-23T13:00:43;8.97;;;8.20;;
19089;SDS011;9677;50.656;13.064;2023-04-23T13:03:14;8.50;;;7.80;;
19089;SDS011;9677;50.656;13.064;2023-04-23T13:05:44;8.80;;;8.00;;
19089;SDS011;9677;50.656;13.064;2023-04-23T13:08:13;8.80;;;8.10;;
19089;SDS011;9677;50.656;13.064;2023-04-23T13:10:41;8.50;;;7.80;;
19089;SDS011;9677;50.656;13.064;2023-04-23T13:13:11;8.60;;;7.90;;
19089;SDS011;9677;50.656;13.064;2023-04-23T13:15:40;9.00;;;8.20;;
19089;SDS011;9677;50.656;13.064;2023-04-23T13:18:09;8.50;;;7.80;;
19089;SDS011;9677;50.656;13.064;2023-04-23T13:20:37;8.70;;;8.00;;
19089;SDS011;9677;50.656;13.064;2023-04-23T13:23:05;8.70;;;8.00;;
19089;SDS011;9677;50.656;13.064;2023-04-23T13:25:34;8.87;;;8.07;;
19089;SDS011;9677;50.656;13.064;2023-04-23T13:28:02;8.57;;;7.87;;
19089;SDS011;9677;50.656;13.064;2023-04-23T13:30:32;8.40;;;7.70;;
19089;SDS011;9677;50.656;13.064;2023-04-23T13:33:00;8.60;;;7.90;;
19089;SDS011;9677;50.656;13.064;2023-04-23T13:35:29;8.90;;;8.10;;
19089;SDS011;9677;50.656;13.064;2023-04-23T13:37:57;8.60;;;7.90;;
19089;SDS011;9677;50.656;13.064;2023-04-23T13:40:26;8.57;;;7.87;;
19089;SDS011;9677;50.656;13.064;2023-04-23T13:42:54;8.70;;;7.90;;
19089;SDS011;9677;50.656;13.064;2023-04-23T13:45:22;8.80;;;8.00;;
19089;SDS011;9677;50.656;13.064;2023-04-23T13:47:53;8.83;;;8.00;;
19089;SDS011;9677;50.656;13.064;2023-04-23T13:50:22;8.90;;;8.10;;
19089;SDS011;9677;50.656;13.064;2023-04-23T13:52:50;8.57;;;7.87;;
19089;SDS011;9677;50.656;13.064;2023-04-23T13:55:19;8.57;;;7.87;;
19089;SDS011;9677;50.656;13.064;2023-04-23T13:57:47;8.40;;;7.70;;
19089;SDS011;9677;50.656;13.064;2023-04-23T14:00:16;8.60;;;7.90;;
19089;SDS011;9677;50.656;13.064;2023-04-23T14:02:44;8.90;;;8.10;;
19089;SDS011;9677;50.656;13.064;2023-04-23T14:05:14;8.60;;;7.90;;
19089;SDS011;9677;50.656;13.064;2023-04-23T14:07:43;8.70;;;8.00;;
19089;SDS011;9677;50.656;13.064;2023-04-23T14:10:11;8.77;;;8.07;;
19089;SDS011;9677;50.656;13.064;2023-04-23T14:12:40;8.77;;;8.07;;
19089;SDS011;9677;50.656;13.064;2023-04-23T14:15:09;8.80;;;8.10;;
19089;SDS011;9677;50.656;13.064;2023-04-23T14:17:38;8.67;;;7.97;;
19089;SDS011;9677;50.656;13.064;2023-04-23T14:20:08;8.90;;;8.10;;
19089;SDS011;9677;50.656;13.064;2023-04-23T14:22:39;9.10;;;8.30;;
19089;SDS011;9677;50.656;13.064;2023-04-23T14:25:08;8.50;;;7.80;;
19089;SDS011;9677;50.656;13.064;2023-04-23T14:27:43;9.00;;;8.20;;
19089;SDS011;9677;50.656;13.064;2023-04-23T14:30:13;8.63;;;7.90;;
19089;SDS011;9677;50.656;13.064;2023-04-23T14:32:43;8.77;;;8.07;;
19089;SDS011;9677;50.656;13.064;2023-04-23T14:35:15;9.00;;;8.20;;
19089;SDS011;9677;50.656;13.064;2023-04-23T14:37:56;8.70;;;8.00;;
19089;SDS011;9677;50.656;13.064;2023-04-23T14:40:24;8.87;;;8.07;;
19089;SDS011;9677;50.656;13.064;2023-04-23T14:42:53;8.67;;;7.97;;
19089;SDS011;9677;50.656;13.064;2023-04-23T14:45:33;9.00;;;8.20;;
19089;SDS011;9677;50.656;13.064;2023-04-23T14:48:02;9.00;;;8.20;;
19089;SDS011;9677;50.656;13.064;2023-04-23T14:50:30;8.97;;;8.13;;
19089;SDS011;9677;50.656;13.064;2023-04-23T14:53:00;8.60;;;7.90;;
19089;SDS011;9677;50.656;13.064;2023-04-23T14:55:32;9.00;;;8.20;;
19089;SDS011;9677;50.656;13.064;2023-04-23T14:58:01;8.57;;;7.87;;
19089;SDS011;9677;50.656;13.064;2023-04-23T15:00:29;8.73;;;7.97;;
19089;SDS011;9677;50.656;13.064;2023-04-23T15:02:57;9.00;;;8.20;;
19089;SDS011;9677;50.656;13.064;2023-04-23T15:05:28;8.70;;;7.90;;
19089;SDS011;9677;50.656;13.064;2023-04-23T15:07:57;8.53;;;7.83;;
19089;SDS011;9677;50.656;13.064;2023-04-23T15:10:27;8.73;;;8.00;;
19089;SDS011;9677;50.656;13.064;2023-04-23T15:16:17;8.70;;;8.00;;
19089;SDS011;9677;50.656;13.064;2023-04-23T15:19:12;8.60;;;7.90;;
19089;SDS011;9677;50.656;13.064;2023-04-23T15:21:45;8.50;;;7.80;;
19089;SDS011;9677;50.656;13.064;2023-04-23T15:24:17;8.80;;;8.00;;
19089;SDS011;9677;50.656;13.064;2023-04-23T15:26:48;8.40;;;7.70;;
19089;SDS011;9677;50.656;13.064;2023-04-23T15:29:25;8.80;;;8.10;;
19089;SDS011;9677;50.656;13.064;2023-04-23T15:31:54;8.37;;;7.67;;
19089;SDS011;9677;50.656;13.064;2023-04-23T15:34:25;8.80;;;8.00;;
19089;SDS011;9677;50.656;13.064;2023-04-23T15:36:56;8.40;;;7.70;;
19089;SDS011;9677;50.656;13.064;2023-04-23T15:43:05;8.70;;;8.00;;
19089;SDS011;9677;50.656;13.064;2023-04-23T15:46:09;8.47;;;7.77;;
19089;SDS011;9677;50.656;13.064;2023-04-23T15:48:40;8.50;;;7.80;;
19089;SDS011;9677;50.656;13.064;2023-04-23T16:03:44;8.60;;;7.90;;
19089;SDS011;9677;50.656;13.064;2023-04-23T16:06:33;8.70;;;8.00;;
19089;SDS011;9677;50.656;13.064;2023-04-23T16:09:02;8.60;;;7.90;;
19089;SDS011;9677;50.656;13.064;2023-04-23T16:11:34;9.50;;;8.10;;
19089;SDS011;9677;50.656;13.064;2023-04-23T16:14:04;8.27;;;7.60;;
19089;SDS011;9677;50.656;13.064;2023-04-23T16:16:35;8.53;;;7.83;;
19089;SDS011;9677;50.656;13.064;2023-04-23T16:19:07;8.60;;;7.90;;
19089;SDS011;9677;50.656;13.064;2023-04-23T16:21:37;8.70;;;7.90;;
19089;SDS011;9677;50.656;13.064;2023-04-23T16:24:06;8.60;;;7.80;;
19089;SDS011;9677;50.656;13.064;2023-04-23T16:26:36;8.40;;;7.70;;
19089;SDS011;9677;50.656;13.064;2023-04-23T16:29:06;8.60;;;7.90;;
19089;SDS011;9677;50.656;13.064;2023-04-23T16:31:47;8.70;;;8.00;;
19089;SDS011;9677;50.656;13.064;2023-04-23T16:34:17;8.90;;;8.10;;
19089;SDS011;9677;50.656;13.064;2023-04-23T16:36:46;8.70;;;8.00;;
19089;SDS011;9677;50.656;13.064;2023-04-23T16:39:15;8.70;;;8.00;;
19089;SDS011;9677;50.656;13.064;2023-04-23T16:41:43;9.20;;;8.40;;
19089;SDS011;9677;50.656;13.064;2023-04-23T16:44:12;9.10;;;8.30;;
19089;SDS011;9677;50.656;13.064;2023-04-23T16:46:41;9.20;;;8.40;;
19089;SDS011;9677;50.656;13.064;2023-04-23T16:49:10;9.13;;;8.33;;
19089;SDS011;9677;50.656;13.064;2023-04-23T16:51:41;9.00;;;8.20;;
19089;SDS011;9677;50.656;13.064;2023-04-23T16:54:10;8.90;;;8.13;;
19089;SDS011;9677;50.656;13.064;2023-04-23T16:56:38;9.17;;;8.37;;
19089;SDS011;9677;50.656;13.064;2023-04-23T16:59:07;9.00;;;8.20;;
19089;SDS011;9677;50.656;13.064;2023-04-23T17:01:37;8.83;;;8.07;;
19089;SDS011;9677;50.656;13.064;2023-04-23T17:04:06;8.80;;;8.10;;
19089;SDS011;9677;50.656;13.064;2023-04-23T17:06:35;8.97;;;8.17;;
19089;SDS011;9677;50.656;13.064;2023-04-23T17:09:10;9.00;;;8.20;;
19089;SDS011;9677;50.656;13.064;2023-04-23T17:14:48;9.00;;;8.10;;
19089;SDS011;9677;50.656;13.064;2023-04-23T17:23:30;8.87;;;8.10;;
19089;SDS011;9677;50.656;13.064;2023-04-23T17:26:02;8.80;;;8.10;;
19089;SDS011;9677;50.656;13.064;2023-04-23T17:28:32;9.00;;;8.20;;
19089;SDS011;9677;50.656;13.064;2023-04-23T17:31:02;8.90;;;8.10;;
19089;SDS011;9677;50.656;13.064;2023-04-23T17:33:32;9.20;;;8.40;;
19089;SDS011;9677;50.656;13.064;2023-04-23T17:36:01;9.20;;;8.40;;
19089;SDS011;9677;50.656;13.064;2023-04-23T17:38:31;8.63;;;7.93;;
19089;SDS011;9677;50.656;13.064;2023-04-23T17:44:21;9.33;;;8.43;;
19089;SDS011;9677;50.656;13.064;2023-04-23T18:06:57;9.10;;;8.30;;
19089;SDS011;9677;50.656;13.064;2023-04-23T18:16:08;9.47;;;8.60;;
19089;SDS011;9677;50.656;13.064;2023-04-23T18:19:07;9.50;;;8.70;;
19089;SDS011;9677;50.656;13.064;2023-04-23T18:33:35;9.30;;;8.50;;
19089;SDS011;9677;50.656;13.064;2023-04-23T18:51:41;9.63;;;8.73;;
19089;SDS011;9677;50.656;13.064;2023-04-23T19:30:56;35.27;;;18.80;;
19089;SDS011;9677;50.656;13.064;2023-04-23T19:33:28;25.23;;;14.27;;
19089;SDS011;9677;50.656;13.064;2023-04-23T19:35:57;35.60;;;20.70;;
19089;SDS011;9677;50.656;13.064;2023-04-23T19:38:27;34.80;;;19.40;;
19089;SDS011;9677;50.656;13.064;2023-04-23T19:40:58;26.60;;;17.40;;
19089;SDS011;9677;50.656;13.064;2023-04-23T19:43:28;26.33;;;17.70;;
19089;SDS011;9677;50.656;13.064;2023-04-23T19:45:58;21.67;;;15.37;;
19089;SDS011;9677;50.656;13.064;2023-04-23T19:48:28;20.70;;;14.83;;
19089;SDS011;9677;50.656;13.064;2023-04-23T19:50:57;18.03;;;14.00;;
19089;SDS011;9677;50.656;13.064;2023-04-23T19:53:32;14.13;;;12.57;;
19089;SDS011;9677;50.656;13.064;2023-04-23T19:56:02;13.70;;;11.50;;
19089;SDS011;9677;50.656;13.064;2023-04-23T19:58:39;13.03;;;10.80;;
19089;SDS011;9677;50.656;13.064;2023-04-23T20:04:27;11.20;;;9.80;;
19089;SDS011;9677;50.656;13.064;2023-04-23T20:06:57;11.10;;;10.00;;
19089;SDS011;9677;50.656;13.064;2023-04-23T20:09:26;11.00;;;9.90;;
19089;SDS011;9677;50.656;13.064;2023-04-23T20:14:55;11.00;;;9.90;;
19089;SDS011;9677;50.656;13.064;2023-04-23T20:17:25;10.80;;;9.70;;
19089;SDS011;9677;50.656;13.064;2023-04-23T20:23:11;10.30;;;9.30;;
19089;SDS011;9677;50.656;13.064;2023-04-23T20:28:43;10.70;;;9.70;;
19089;SDS011;9677;50.656;13.064;2023-04-23T20:40:43;10.23;;;9.33;;
19089;SDS011;9677;50.656;13.064;2023-04-23T20:43:14;10.37;;;9.37;;